Arklow Raider — EIXS — position and weather

sailwx.info

Track history (hours):
 
Tides and Currents Weather Stations Pressure Air Temp Water Temp Dewpoint Dewpoint Depression Visibility Wind Speed Wind Dir Waves Ship Positions

Arklow Raider

Last reported at 2014-Nov-21 01:33 UTC. Time now 2014-Nov-21 02:21 UTC.
Position N 45°36' W 001°29'.

Length 90 m; draft 3.6 m.

Type: Ship. MMSI: 250001268.

Date/timePositionNaut miles runAvg speedWind from/ knotsBaromVisibWave heightAir tempDewpointWater temp
2014-Nov-21 01:33N 45°36' W 001°29'0 0.0
2014-Nov-21 00:18N 45°36' W 001°29'0 0.0
2014-Nov-20 23:27N 45°36' W 001°29'59 4.9
2014-Nov-20 11:23N 45°16' W 002°48'  
2014-Nov-17 21:24N 38°37' W 009°25'1011.7
2014-Nov-17 20:33N 38°41' W 009°13'6 5.9
2014-Nov-17 19:32N 38°44' W 009°06'0 0.0
2014-Nov-17 18:32N 38°44' W 009°06'0 0.0
2014-Nov-17 17:32N 38°44' W 009°06'0 0.0
2014-Nov-17 16:32N 38°44' W 009°06'0 0.0
2014-Nov-17 15:32N 38°44' W 009°06'0 0.0
2014-Nov-17 14:32N 38°44' W 009°06'0 0.0
2014-Nov-17 13:32N 38°44' W 009°06'0 0.0
2014-Nov-17 12:29N 38°44' W 009°06'0 0.0
2014-Nov-17 11:32N 38°44' W 009°06'0 0.0
2014-Nov-17 10:32N 38°44' W 009°06'0 0.0
2014-Nov-17 09:32N 38°44' W 009°06'0 0.0
2014-Nov-17 08:32N 38°44' W 009°06'0 0.0
2014-Nov-17 07:32N 38°44' W 009°06'0 0.0
2014-Nov-17 06:32N 38°44' W 009°06'0 0.0
2014-Nov-17 05:32N 38°44' W 009°06'0 0.0
2014-Nov-17 04:32N 38°44' W 009°06'0 0.0
2014-Nov-17 03:32N 38°44' W 009°06'0 0.0
2014-Nov-17 02:32N 38°44' W 009°06'0 0.0
2014-Nov-17 01:32N 38°44' W 009°06'0 0.0
2014-Nov-17 00:32N 38°44' W 009°06'0 0.0
2014-Nov-16 23:32N 38°44' W 009°06'0 0.0
2014-Nov-16 22:32N 38°44' W 009°06'0 0.0
2014-Nov-16 21:26N 38°44' W 009°06'0 0.0
2014-Nov-16 20:32N 38°44' W 009°06'0 0.0
2014-Nov-16 19:32N 38°44' W 009°06'0 0.0
2014-Nov-16 18:32N 38°44' W 009°06'0 0.0
2014-Nov-16 17:32N 38°44' W 009°06'0 0.0
2014-Nov-16 16:32N 38°44' W 009°06'0 0.0
2014-Nov-16 15:29N 38°44' W 009°06'0 0.0
2014-Nov-16 14:32N 38°44' W 009°06'0 0.0
2014-Nov-16 13:29N 38°44' W 009°06'0 0.0
2014-Nov-16 12:32N 38°44' W 009°06'1 0.5
2014-Nov-16 11:33N 38°44' W 009°06'1010.1
2014-Nov-16 10:33N 38°40' W 009°18'  
2014-Nov-12 22:08N 45°60' W 001°51'15 8.9
2014-Nov-12 20:24N 46°06' W 001°31'8 9.2
2014-Nov-12 19:33N 46°06' W 001°20'6 5.4
2014-Nov-12 18:32N 46°10' W 001°14'0 0.0
2014-Nov-12 17:32N 46°10' W 001°14'0 0.0
2014-Nov-12 16:32N 46°10' W 001°14'0 0.0
2014-Nov-12 15:32N 46°10' W 001°14'0 0.0
2014-Nov-12 14:32N 46°10' W 001°14'0 0.0
2014-Nov-12 13:32N 46°10' W 001°14'0 0.0
2014-Nov-12 12:32N 46°10' W 001°14'0 0.0
2014-Nov-12 11:32N 46°10' W 001°14'0 0.0
2014-Nov-12 10:32N 46°10' W 001°14'0 0.0
2014-Nov-12 09:32N 46°10' W 001°14'0 0.0
2014-Nov-12 08:32N 46°10' W 001°14'0 0.0
2014-Nov-12 07:32N 46°10' W 001°14'0 0.0
2014-Nov-12 06:32N 46°10' W 001°14'0 0.0
2014-Nov-12 05:32N 46°10' W 001°14'0 0.0
2014-Nov-12 04:32N 46°10' W 001°14'0 0.0
2014-Nov-12 03:32N 46°10' W 001°14'0 0.0
2014-Nov-12 02:29N 46°10' W 001°14'0 0.0
2014-Nov-12 01:32N 46°10' W 001°14'0 0.0
2014-Nov-12 00:32N 46°10' W 001°14'0 0.0
2014-Nov-11 23:32N 46°10' W 001°14'0 0.0
2014-Nov-11 22:32N 46°10' W 001°14'0 0.0
2014-Nov-11 21:32N 46°10' W 001°14'0 0.0
2014-Nov-11 20:32N 46°10' W 001°14'0 0.0
2014-Nov-11 19:29N 46°10' W 001°14'0 0.0
2014-Nov-11 18:32N 46°10' W 001°14'0 0.0
2014-Nov-11 17:32N 46°10' W 001°14'0 0.0
2014-Nov-11 16:32N 46°10' W 001°14'0 0.0
2014-Nov-11 15:30N 46°10' W 001°14'6 6.8
2014-Nov-11 14:33N 46°05' W 001°21'8 7.7
2014-Nov-11 13:33N 46°04' W 001°31'  
Track history (hours):
 
Tides and Currents Weather Stations Pressure Air Temp Water Temp Dewpoint Dewpoint Depression Visibility Wind Speed Wind Dir Waves Ship Positions

Arklow Raider

Last reported at 2014-Nov-21 01:33 UTC. Time now 2014-Nov-21 02:21 UTC.
Position N 45°36' W 001°29'.

Length 90 m; draft 3.6 m.

Type: Ship. MMSI: 250001268.

Date/timePositionNaut miles runAvg speedWind from/ knotsBaromVisibWave heightAir tempDewpointWater temp
2014-Nov-21 01:33N 45°36' W 001°29'0 0.0
2014-Nov-21 00:18N 45°36' W 001°29'0 0.0
2014-Nov-20 23:27N 45°36' W 001°29'59 4.9
2014-Nov-20 11:23N 45°16' W 002°48'  
2014-Nov-17 21:24N 38°37' W 009°25'1011.7
2014-Nov-17 20:33N 38°41' W 009°13'6 5.9
2014-Nov-17 19:32N 38°44' W 009°06'0 0.0
2014-Nov-17 18:32N 38°44' W 009°06'0 0.0
2014-Nov-17 17:32N 38°44' W 009°06'0 0.0
2014-Nov-17 16:32N 38°44' W 009°06'0 0.0
2014-Nov-17 15:32N 38°44' W 009°06'0 0.0
2014-Nov-17 14:32N 38°44' W 009°06'0 0.0
2014-Nov-17 13:32N 38°44' W 009°06'0 0.0
2014-Nov-17 12:29N 38°44' W 009°06'0 0.0
2014-Nov-17 11:32N 38°44' W 009°06'0 0.0
2014-Nov-17 10:32N 38°44' W 009°06'0 0.0
2014-Nov-17 09:32N 38°44' W 009°06'0 0.0
2014-Nov-17 08:32N 38°44' W 009°06'0 0.0
2014-Nov-17 07:32N 38°44' W 009°06'0 0.0
2014-Nov-17 06:32N 38°44' W 009°06'0 0.0
2014-Nov-17 05:32N 38°44' W 009°06'0 0.0
2014-Nov-17 04:32N 38°44' W 009°06'0 0.0
2014-Nov-17 03:32N 38°44' W 009°06'0 0.0
2014-Nov-17 02:32N 38°44' W 009°06'0 0.0
2014-Nov-17 01:32N 38°44' W 009°06'0 0.0
2014-Nov-17 00:32N 38°44' W 009°06'0 0.0
2014-Nov-16 23:32N 38°44' W 009°06'0 0.0
2014-Nov-16 22:32N 38°44' W 009°06'0 0.0
2014-Nov-16 21:26N 38°44' W 009°06'0 0.0
2014-Nov-16 20:32N 38°44' W 009°06'0 0.0
2014-Nov-16 19:32N 38°44' W 009°06'0 0.0
2014-Nov-16 18:32N 38°44' W 009°06'0 0.0
2014-Nov-16 17:32N 38°44' W 009°06'0 0.0
2014-Nov-16 16:32N 38°44' W 009°06'0 0.0
2014-Nov-16 15:29N 38°44' W 009°06'0 0.0
2014-Nov-16 14:32N 38°44' W 009°06'0 0.0
2014-Nov-16 13:29N 38°44' W 009°06'0 0.0
2014-Nov-16 12:32N 38°44' W 009°06'1 0.5
2014-Nov-16 11:33N 38°44' W 009°06'1010.1
2014-Nov-16 10:33N 38°40' W 009°18'  
2014-Nov-12 22:08N 45°60' W 001°51'15 8.9
2014-Nov-12 20:24N 46°06' W 001°31'8 9.2
2014-Nov-12 19:33N 46°06' W 001°20'6 5.4
2014-Nov-12 18:32N 46°10' W 001°14'0 0.0
2014-Nov-12 17:32N 46°10' W 001°14'0 0.0
2014-Nov-12 16:32N 46°10' W 001°14'0 0.0
2014-Nov-12 15:32N 46°10' W 001°14'0 0.0
2014-Nov-12 14:32N 46°10' W 001°14'0 0.0
2014-Nov-12 13:32N 46°10' W 001°14'0 0.0
2014-Nov-12 12:32N 46°10' W 001°14'0 0.0
2014-Nov-12 11:32N 46°10' W 001°14'0 0.0
2014-Nov-12 10:32N 46°10' W 001°14'0 0.0
2014-Nov-12 09:32N 46°10' W 001°14'0 0.0
2014-Nov-12 08:32N 46°10' W 001°14'0 0.0
2014-Nov-12 07:32N 46°10' W 001°14'0 0.0
2014-Nov-12 06:32N 46°10' W 001°14'0 0.0
2014-Nov-12 05:32N 46°10' W 001°14'0 0.0
2014-Nov-12 04:32N 46°10' W 001°14'0 0.0
2014-Nov-12 03:32N 46°10' W 001°14'0 0.0
2014-Nov-12 02:29N 46°10' W 001°14'0 0.0
2014-Nov-12 01:32N 46°10' W 001°14'0 0.0
2014-Nov-12 00:32N 46°10' W 001°14'0 0.0
2014-Nov-11 23:32N 46°10' W 001°14'0 0.0
2014-Nov-11 22:32N 46°10' W 001°14'0 0.0
2014-Nov-11 21:32N 46°10' W 001°14'0 0.0
2014-Nov-11 20:32N 46°10' W 001°14'0 0.0
2014-Nov-11 19:29N 46°10' W 001°14'0 0.0
2014-Nov-11 18:32N 46°10' W 001°14'0 0.0
2014-Nov-11 17:32N 46°10' W 001°14'0 0.0
2014-Nov-11 16:32N 46°10' W 001°14'0 0.0
2014-Nov-11 15:30N 46°10' W 001°14'6 6.8
2014-Nov-11 14:33N 46°05' W 001°21'8 7.7
2014-Nov-11 13:33N 46°04' W 001°31'  

Dump ship's entire track history